createdAt,value
2022-09-07T00:00:53.398Z,2.80
2022-09-07T00:03:21.078Z,2.60
2022-09-07T00:05:51.024Z,2.30
2022-09-07T00:08:20.832Z,2.50
2022-09-07T00:11:05.800Z,2.40
2022-09-07T00:13:36.068Z,3.10
2022-09-07T00:16:08.438Z,2.70
2022-09-07T00:18:35.997Z,2.80
2022-09-07T00:21:06.542Z,2.50
2022-09-07T00:23:35.533Z,3.00
2022-09-07T00:26:08.132Z,2.70
2022-09-07T00:28:36.097Z,2.70
2022-09-07T00:31:04.193Z,3.00
2022-09-07T00:33:31.704Z,2.90
2022-09-07T00:35:59.692Z,2.20
2022-09-07T00:38:26.855Z,2.50
2022-09-07T00:40:54.021Z,2.60
2022-09-07T00:43:39.294Z,2.70
2022-09-07T00:46:12.296Z,2.50
2022-09-07T00:48:58.853Z,2.80
2022-09-07T00:51:43.630Z,2.50
2022-09-07T00:54:19.021Z,2.40
2022-09-07T00:56:49.336Z,2.10
2022-09-07T00:59:20.775Z,2.40
2022-09-07T01:01:48.329Z,2.30
2022-09-07T01:04:16.783Z,2.40
2022-09-07T01:06:44.592Z,2.70
2022-09-07T01:09:20.818Z,2.30
2022-09-07T01:11:51.394Z,2.50
2022-09-07T01:14:29.408Z,3.00
2022-09-07T01:17:15.307Z,3.00
2022-09-07T01:22:54.783Z,2.20
2022-09-07T01:25:51.696Z,2.80
2022-09-07T01:28:33.776Z,2.90
2022-09-07T01:31:14.441Z,2.90
2022-09-07T01:34:09.253Z,2.70
2022-09-07T01:37:06.861Z,2.80
2022-09-07T01:39:48.260Z,3.30
2022-09-07T01:42:21.476Z,2.70
2022-09-07T01:44:58.681Z,2.90
2022-09-07T01:47:48.842Z,2.10
2022-09-07T01:50:42.322Z,2.80
2022-09-07T01:53:16.910Z,2.60
2022-09-07T01:56:18.195Z,2.50
2022-09-07T01:58:52.108Z,2.50
2022-09-07T02:01:54.135Z,2.90
2022-09-07T02:04:28.558Z,2.90
2022-09-07T02:07:21.295Z,2.60
2022-09-07T02:10:11.383Z,3.10
2022-09-07T02:13:08.609Z,3.30
2022-09-07T02:16:00.333Z,3.00
2022-09-07T02:18:34.686Z,3.30
2022-09-07T02:21:03.177Z,2.50
2022-09-07T02:23:40.457Z,2.70
2022-09-07T02:26:15.931Z,2.90
2022-09-07T02:28:44.049Z,2.40
2022-09-07T02:31:11.366Z,2.70
2022-09-07T02:33:38.901Z,2.50
2022-09-07T02:36:06.758Z,2.70
2022-09-07T02:38:36.167Z,2.60
2022-09-07T02:41:04.431Z,2.60
2022-09-07T02:43:33.272Z,2.50
2022-09-07T02:46:29.573Z,2.90
2022-09-07T02:49:16.897Z,2.20
2022-09-07T02:52:16.206Z,2.70
2022-09-07T02:55:05.851Z,2.50
2022-09-07T02:57:35.317Z,2.90
2022-09-07T03:00:21.121Z,2.50
2022-09-07T03:03:18.711Z,2.80
2022-09-07T03:05:48.557Z,2.80
2022-09-07T03:08:26.897Z,2.70
2022-09-07T03:10:54.944Z,2.50
2022-09-07T03:13:28.203Z,2.30
2022-09-07T03:15:56.734Z,3.10
2022-09-07T03:18:24.889Z,3.80
2022-09-07T03:20:51.943Z,2.50
2022-09-07T03:23:19.203Z,2.80
2022-09-07T03:25:47.939Z,2.90
2022-09-07T03:28:16.268Z,2.90
2022-09-07T03:30:45.347Z,2.60
2022-09-07T03:33:12.461Z,2.70
2022-09-07T03:35:39.874Z,2.50
2022-09-07T03:38:07.011Z,2.40
2022-09-07T03:40:34.121Z,2.70
2022-09-07T03:43:01.098Z,2.60
2022-09-07T03:45:28.166Z,2.40
2022-09-07T03:47:55.678Z,2.70
2022-09-07T03:50:22.865Z,2.50
2022-09-07T03:52:49.878Z,2.60
2022-09-07T03:55:16.948Z,2.90
2022-09-07T03:57:44.129Z,2.70
2022-09-07T04:00:12.223Z,2.80
2022-09-07T04:02:42.557Z,2.60
2022-09-07T04:05:10.016Z,2.80
2022-09-07T04:07:36.979Z,2.90
2022-09-07T04:10:04.338Z,2.90
2022-09-07T04:12:31.354Z,3.30
2022-09-07T04:14:58.336Z,3.60
2022-09-07T04:17:26.158Z,2.90
2022-09-07T04:19:53.174Z,3.30
2022-09-07T04:22:28.890Z,3.30
2022-09-07T04:24:56.083Z,3.20
2022-09-07T04:27:22.977Z,3.60
2022-09-07T04:29:50.154Z,4.00
2022-09-07T04:32:17.180Z,4.60
2022-09-07T04:34:44.350Z,4.00
2022-09-07T04:37:12.759Z,3.70
2022-09-07T04:39:39.929Z,4.50
2022-09-07T04:42:07.003Z,4.00
2022-09-07T04:44:34.462Z,4.60
2022-09-07T04:47:01.548Z,4.90
2022-09-07T04:49:28.700Z,4.90
2022-09-07T04:51:55.677Z,5.20
2022-09-07T04:54:22.755Z,4.40
2022-09-07T04:56:49.738Z,4.90
2022-09-07T04:59:16.591Z,4.90
2022-09-07T05:01:43.667Z,5.20
2022-09-07T05:04:14.159Z,5.20
2022-09-07T05:06:41.797Z,5.00
2022-09-07T05:09:10.818Z,6.10
2022-09-07T05:11:37.877Z,5.50
2022-09-07T05:14:05.350Z,5.50
2022-09-07T05:16:34.193Z,6.10
2022-09-07T05:19:08.435Z,5.40
2022-09-07T05:21:46.025Z,5.60
2022-09-07T05:24:13.318Z,5.60
2022-09-07T05:26:40.444Z,5.70
2022-09-07T05:31:55.161Z,5.50
2022-09-07T05:34:29.971Z,6.00
2022-09-07T05:36:59.058Z,5.40
2022-09-07T05:39:26.889Z,5.30
2022-09-07T05:41:54.187Z,6.10
2022-09-07T05:47:09.834Z,4.80
2022-09-07T05:49:36.690Z,5.00
2022-09-07T05:52:03.837Z,5.50
2022-09-07T05:54:30.935Z,5.50
2022-09-07T05:56:57.922Z,5.20
2022-09-07T05:59:24.737Z,5.50
2022-09-07T06:01:51.690Z,5.90
2022-09-07T06:04:18.639Z,5.70
2022-09-07T06:07:04.648Z,5.30
2022-09-07T06:09:32.436Z,5.30
2022-09-07T06:11:59.544Z,4.80
2022-09-07T06:14:26.320Z,5.40
2022-09-07T06:16:54.051Z,6.20
2022-09-07T06:19:21.071Z,5.50
2022-09-07T06:21:47.887Z,5.40
2022-09-07T06:24:14.762Z,6.30
2022-09-07T06:26:41.668Z,5.50
2022-09-07T06:29:10.918Z,5.50
2022-09-07T06:34:25.831Z,5.80
2022-09-07T06:36:52.614Z,4.80
2022-09-07T06:39:19.351Z,5.30
2022-09-07T06:42:01.818Z,4.70
2022-09-07T06:44:31.326Z,4.50
2022-09-07T06:47:05.275Z,5.00
2022-09-07T06:49:32.336Z,3.50
2022-09-07T06:51:59.189Z,4.50
2022-09-07T06:57:12.884Z,3.30
2022-09-07T06:59:39.980Z,3.40
2022-09-07T07:02:08.176Z,3.20
2022-09-07T07:04:40.236Z,3.00
2022-09-07T07:07:12.528Z,2.80
2022-09-07T07:09:40.334Z,2.90
2022-09-07T07:12:07.647Z,2.40
2022-09-07T07:14:37.423Z,2.90
2022-09-07T07:17:06.788Z,3.30
2022-09-07T07:19:33.731Z,2.50
2022-09-07T07:24:47.797Z,2.80
2022-09-07T07:27:14.531Z,3.10
2022-09-07T07:29:42.482Z,2.80
2022-09-07T07:32:09.879Z,2.20
2022-09-07T07:34:36.778Z,2.10
2022-09-07T07:37:03.625Z,2.30
2022-09-07T07:42:17.322Z,2.00
2022-09-07T07:44:45.037Z,1.60
2022-09-07T07:47:11.822Z,1.70
2022-09-07T07:49:38.669Z,2.00
2022-09-07T07:54:53.349Z,1.70
2022-09-07T07:57:20.191Z,1.40
2022-09-07T07:59:46.963Z,1.70
2022-09-07T08:02:16.276Z,1.40
2022-09-07T08:04:43.655Z,1.40
2022-09-07T08:07:12.227Z,1.50
2022-09-07T08:09:43.310Z,1.50
2022-09-07T08:12:12.412Z,1.80
2022-09-07T08:14:41.515Z,1.40
2022-09-07T08:17:14.428Z,1.20
2022-09-07T08:19:41.618Z,1.80
2022-09-07T08:22:11.007Z,1.30
2022-09-07T08:24:38.165Z,1.30
2022-09-07T08:27:05.437Z,1.50
2022-09-07T08:29:35.315Z,1.00
2022-09-07T08:32:05.210Z,1.40
2022-09-07T08:34:32.522Z,1.00
2022-09-07T08:36:59.368Z,1.10
2022-09-07T08:39:26.380Z,1.50
2022-09-07T08:42:07.129Z,1.30
2022-09-07T08:44:39.379Z,1.30
2022-09-07T08:47:19.182Z,1.40
2022-09-07T08:50:02.327Z,1.40
2022-09-07T08:52:48.279Z,1.40
2022-09-07T08:55:31.438Z,1.10
2022-09-07T08:58:32.565Z,0.80
2022-09-07T09:01:33.748Z,0.80
2022-09-07T09:04:17.997Z,1.10
2022-09-07T09:07:03.304Z,0.80
2022-09-07T09:09:35.678Z,1.10
2022-09-07T09:12:23.716Z,0.80
2022-09-07T09:14:59.522Z,1.00
2022-09-07T09:19:55.824Z,0.90
2022-09-07T09:22:26.803Z,1.30
2022-09-07T09:25:03.889Z,1.30
2022-09-07T09:27:30.688Z,4.20
2022-09-07T09:29:57.525Z,1.90
2022-09-07T09:32:35.813Z,2.50
2022-09-07T09:35:18.757Z,1.30
2022-09-07T09:37:46.290Z,1.30
2022-09-07T09:40:39.390Z,1.10
2022-09-07T09:43:21.720Z,1.20
2022-09-07T09:48:41.748Z,1.50
2022-09-07T09:54:00.100Z,1.00
2022-09-07T09:56:57.027Z,0.90
2022-09-07T10:05:28.666Z,0.70
2022-09-07T10:07:56.928Z,0.80
2022-09-07T10:10:24.583Z,1.10
2022-09-07T10:12:54.672Z,1.10
2022-09-07T10:15:29.297Z,0.80
2022-09-07T10:17:58.377Z,0.90
2022-09-07T10:20:37.004Z,1.30
2022-09-07T10:23:06.004Z,0.90
2022-09-07T10:25:41.209Z,0.90
2022-09-07T10:28:11.771Z,0.60
2022-09-07T10:30:47.903Z,0.90
2022-09-07T10:33:24.583Z,0.90
2022-09-07T10:36:36.841Z,1.00
2022-09-07T10:39:08.560Z,1.00
2022-09-07T10:41:35.561Z,1.00
2022-09-07T10:44:04.774Z,0.70
2022-09-07T10:46:58.612Z,0.90
2022-09-07T10:49:34.621Z,1.20
2022-09-07T10:52:16.672Z,1.00
2022-09-07T10:55:18.056Z,0.80
2022-09-07T10:57:54.522Z,0.80
2022-09-07T11:00:24.427Z,1.10
2022-09-07T11:03:36.036Z,1.00
2022-09-07T11:06:14.250Z,1.00
2022-09-07T11:12:09.886Z,1.10
2022-09-07T11:14:43.222Z,1.10
2022-09-07T11:17:21.111Z,1.10
2022-09-07T11:19:56.988Z,1.20
2022-09-07T11:22:45.691Z,1.10
2022-09-07T11:25:30.428Z,1.10
2022-09-07T11:28:23.471Z,1.20
2022-09-07T11:31:00.067Z,1.20
2022-09-07T11:33:42.151Z,1.20
2022-09-07T11:36:14.823Z,1.00
2022-09-07T11:38:51.486Z,2.20
2022-09-07T11:41:30.164Z,1.10
2022-09-07T11:44:13.828Z,1.20
2022-09-07T11:46:51.670Z,1.00
2022-09-07T11:49:24.188Z,1.00
2022-09-07T11:51:55.100Z,0.90
2022-09-07T11:54:33.902Z,1.00
2022-09-07T11:57:18.117Z,0.90
2022-09-07T11:59:51.647Z,0.90
2022-09-07T12:02:58.197Z,1.00
2022-09-07T12:06:01.610Z,0.90
2022-09-07T12:08:58.569Z,1.10
2022-09-07T12:11:46.609Z,1.20
2022-09-07T12:14:22.565Z,1.00
2022-09-07T12:17:01.296Z,0.90
2022-09-07T12:19:28.747Z,1.00
2022-09-07T12:21:59.708Z,1.00
2022-09-07T12:24:35.736Z,0.90
2022-09-07T12:27:23.969Z,0.90
2022-09-07T12:30:14.393Z,1.40
2022-09-07T12:32:55.224Z,1.00
2022-09-07T12:35:28.846Z,1.00
2022-09-07T12:37:57.224Z,0.90
2022-09-07T12:40:36.286Z,1.00
2022-09-07T12:43:15.197Z,1.20
2022-09-07T12:45:45.255Z,0.80
2022-09-07T12:48:17.718Z,0.80
2022-09-07T12:51:59.643Z,0.90
2022-09-07T12:54:42.502Z,1.20
2022-09-07T12:57:33.144Z,0.80
2022-09-07T13:00:25.879Z,0.70
2022-09-07T13:03:51.017Z,0.90
2022-09-07T13:07:01.828Z,0.90
2022-09-07T13:09:23.116Z,1.00
2022-09-07T13:11:49.976Z,5.10
2022-09-07T13:14:23.308Z,1.20
2022-09-07T13:17:29.744Z,1.20
2022-09-07T13:19:56.808Z,1.20
2022-09-07T13:22:29.784Z,2.60
2022-09-07T13:24:59.937Z,3.20
2022-09-07T13:27:43.527Z,1.10
2022-09-07T13:30:16.670Z,0.90
2022-09-07T13:35:32.121Z,1.10
2022-09-07T13:38:03.889Z,1.20
2022-09-07T13:40:38.202Z,1.00
2022-09-07T13:43:06.392Z,1.10
2022-09-07T13:45:54.932Z,1.10
2022-09-07T13:48:37.076Z,1.10
2022-09-07T13:51:30.504Z,0.90
2022-09-07T13:54:19.013Z,0.80
2022-09-07T13:57:04.535Z,0.90
2022-09-07T14:02:01.564Z,0.90
2022-09-07T14:05:05.337Z,1.00
2022-09-07T14:07:33.061Z,1.10
2022-09-07T14:10:20.967Z,0.80
2022-09-07T14:12:53.126Z,1.20
2022-09-07T14:15:42.101Z,1.40
2022-09-07T14:18:22.754Z,1.40
2022-09-07T14:20:54.076Z,1.10
2022-09-07T14:23:32.851Z,0.90
2022-09-07T14:26:20.417Z,1.10
2022-09-07T14:28:50.136Z,1.20
2022-09-07T14:31:20.251Z,1.20
2022-09-07T14:33:59.308Z,0.70
2022-09-07T14:36:48.270Z,1.00
2022-09-07T14:39:18.894Z,0.90
2022-09-07T14:41:46.826Z,0.90
2022-09-07T14:44:46.742Z,0.90
2022-09-07T14:47:29.863Z,0.90
2022-09-07T14:50:05.315Z,1.10
2022-09-07T14:53:33.272Z,1.10
2022-09-07T14:58:36.500Z,1.50
2022-09-07T15:04:15.722Z,1.20
2022-09-07T15:09:43.587Z,1.00
2022-09-07T15:12:19.142Z,1.10
2022-09-07T15:14:47.865Z,1.30
2022-09-07T15:20:35.983Z,1.00
2022-09-07T15:23:05.781Z,0.90
2022-09-07T15:25:34.754Z,1.30
2022-09-07T15:28:02.108Z,1.20
2022-09-07T15:30:29.200Z,1.50
2022-09-07T15:32:57.330Z,1.30
2022-09-07T15:35:27.285Z,1.10
2022-09-07T15:38:02.911Z,0.90
2022-09-07T15:41:03.798Z,1.20
2022-09-07T15:43:29.129Z,1.10
2022-09-07T15:45:56.242Z,1.00
2022-09-07T15:48:27.693Z,1.00
2022-09-07T15:54:17.679Z,1.10
2022-09-07T15:57:48.483Z,1.10
2022-09-07T15:59:32.110Z,1.60
2022-09-07T16:01:59.427Z,1.90
2022-09-07T16:04:26.662Z,1.40
2022-09-07T16:06:53.675Z,1.20
2022-09-07T16:09:21.707Z,1.60
2022-09-07T16:11:50.658Z,1.20
2022-09-07T16:14:18.698Z,1.50
2022-09-07T16:19:35.054Z,1.50
2022-09-07T16:22:03.364Z,2.00
2022-09-07T16:24:30.586Z,1.60
2022-09-07T16:26:57.718Z,1.70
2022-09-07T16:29:24.741Z,1.40
2022-09-07T16:34:39.940Z,2.50
2022-09-07T16:37:07.661Z,1.50
2022-09-07T16:39:35.586Z,1.80
2022-09-07T16:42:03.023Z,2.10
2022-09-07T16:44:30.202Z,1.60
2022-09-07T16:46:57.517Z,1.90
2022-09-07T16:49:24.945Z,1.90
2022-09-07T16:51:52.595Z,1.80
2022-09-07T16:54:21.208Z,1.80
2022-09-07T16:56:48.455Z,2.10
2022-09-07T16:59:21.484Z,2.00
2022-09-07T17:01:48.508Z,1.80
2022-09-07T17:04:15.502Z,1.90
2022-09-07T17:06:43.329Z,2.10
2022-09-07T17:09:13.653Z,1.70
2022-09-07T17:11:41.146Z,2.70
2022-09-07T17:14:08.322Z,2.60
2022-09-07T17:16:39.303Z,2.90
2022-09-07T17:21:57.375Z,4.90
2022-09-07T17:24:24.615Z,3.00
2022-09-07T17:26:51.790Z,2.10
2022-09-07T17:29:18.924Z,2.60
2022-09-07T17:34:33.905Z,2.30
2022-09-07T17:37:01.433Z,1.90
2022-09-07T17:39:29.409Z,2.80
2022-09-07T17:41:56.531Z,2.50
2022-09-07T17:44:23.693Z,3.70
2022-09-07T17:46:51.441Z,3.40
2022-09-07T17:49:18.643Z,2.30
2022-09-07T17:51:46.628Z,3.00
2022-09-07T17:54:18.276Z,2.70
2022-09-07T17:56:46.349Z,2.80
2022-09-07T18:02:01.121Z,2.50
2022-09-07T18:04:28.734Z,2.90
2022-09-07T18:06:56.472Z,3.20
2022-09-07T18:09:23.799Z,2.90
2022-09-07T18:11:51.324Z,2.80
2022-09-07T18:14:19.315Z,3.00
2022-09-07T18:16:49.313Z,5.60
2022-09-07T18:19:18.322Z,3.30
2022-09-07T18:21:48.062Z,3.30
2022-09-07T18:24:23.211Z,2.60
2022-09-07T18:26:52.743Z,3.10
2022-09-07T18:29:33.178Z,2.90
2022-09-07T18:32:07.756Z,2.50
2022-09-07T18:34:36.122Z,2.50
2022-09-07T18:37:04.662Z,2.00
2022-09-07T18:39:32.773Z,2.20
2022-09-07T18:41:59.765Z,2.30
2022-09-07T18:47:22.285Z,2.90
2022-09-07T18:49:51.877Z,3.10
2022-09-07T18:55:08.792Z,4.60
2022-09-07T18:57:36.540Z,3.30
2022-09-07T19:00:07.986Z,3.50
2022-09-07T19:02:36.155Z,3.20
2022-09-07T19:07:52.636Z,3.30
2022-09-07T19:10:19.864Z,2.80
2022-09-07T19:12:46.989Z,3.30
2022-09-07T19:15:14.452Z,3.20
2022-09-07T19:17:41.683Z,3.40
2022-09-07T19:20:09.382Z,3.50
2022-09-07T19:22:36.397Z,3.00
2022-09-07T19:25:04.020Z,3.30
2022-09-07T19:27:33.284Z,3.70
2022-09-07T19:30:00.203Z,4.00
2022-09-07T19:32:27.489Z,3.20
2022-09-07T19:34:55.666Z,3.20
2022-09-07T19:37:25.737Z,3.60
2022-09-07T19:39:57.231Z,3.20
2022-09-07T19:42:25.597Z,3.40
2022-09-07T19:44:54.278Z,3.20
2022-09-07T19:47:22.745Z,3.40
2022-09-07T19:49:49.758Z,3.50
2022-09-07T19:52:16.786Z,4.00
2022-09-07T19:54:43.978Z,3.60
2022-09-07T19:57:11.039Z,3.50
2022-09-07T19:59:38.265Z,3.30
2022-09-07T20:02:06.399Z,3.70
2022-09-07T20:04:33.579Z,3.40
2022-09-07T20:07:00.729Z,3.20
2022-09-07T20:09:28.134Z,3.80
2022-09-07T20:11:55.062Z,4.10
2022-09-07T20:14:22.256Z,3.20
2022-09-07T20:16:49.290Z,4.50
2022-09-07T20:19:17.812Z,3.30
2022-09-07T20:21:45.408Z,3.50
2022-09-07T20:24:13.107Z,3.70
2022-09-07T20:26:40.480Z,3.80
2022-09-07T20:31:55.987Z,3.20
2022-09-07T20:34:23.008Z,3.60
2022-09-07T20:36:51.374Z,3.10
2022-09-07T20:39:18.951Z,3.60
2022-09-07T20:41:46.355Z,3.80
2022-09-07T20:44:14.476Z,3.40
2022-09-07T20:46:41.584Z,3.30
2022-09-07T20:49:09.297Z,3.40
2022-09-07T20:51:36.532Z,3.60
2022-09-07T20:54:03.964Z,3.30
2022-09-07T20:56:30.933Z,3.30
2022-09-07T20:59:00.421Z,3.60
2022-09-07T21:01:29.206Z,3.80
2022-09-07T21:03:58.283Z,3.30
2022-09-07T21:06:27.165Z,3.70
2022-09-07T21:08:55.305Z,4.20
2022-09-07T21:11:27.692Z,3.90
2022-09-07T21:14:02.908Z,3.40
2022-09-07T21:16:30.236Z,4.10
2022-09-07T21:19:00.100Z,4.00
2022-09-07T21:21:29.201Z,3.70
2022-09-07T21:23:59.411Z,3.90
2022-09-07T21:26:28.600Z,4.80
2022-09-07T21:29:00.743Z,8.40
2022-09-07T21:31:29.968Z,3.90
2022-09-07T21:33:59.116Z,3.30
2022-09-07T21:36:27.162Z,3.60
2022-09-07T21:38:54.954Z,3.30
2022-09-07T21:41:23.938Z,3.60
2022-09-07T21:44:02.476Z,3.20
2022-09-07T21:46:32.479Z,3.40
2022-09-07T21:49:00.636Z,3.50
2022-09-07T21:51:28.319Z,2.80
2022-09-07T21:53:57.471Z,3.00
2022-09-07T21:56:25.951Z,2.70
2022-09-07T21:58:55.573Z,3.00
2022-09-07T22:01:24.285Z,2.90
2022-09-07T22:03:59.745Z,3.30
2022-09-07T22:06:28.170Z,3.00
2022-09-07T22:08:55.513Z,3.00
2022-09-07T22:11:24.879Z,3.20
2022-09-07T22:13:57.013Z,2.90
2022-09-07T22:16:24.572Z,2.70
2022-09-07T22:18:52.285Z,3.00
2022-09-07T22:21:22.098Z,2.70
2022-09-07T22:23:52.656Z,2.80
2022-09-07T22:26:22.608Z,3.50
2022-09-07T22:28:49.726Z,3.10
2022-09-07T22:31:20.054Z,3.00
2022-09-07T22:33:48.426Z,3.10
2022-09-07T22:36:19.072Z,2.80
2022-09-07T22:38:48.478Z,3.40
2022-09-07T22:41:18.742Z,2.90
2022-09-07T22:43:47.028Z,3.00
2022-09-07T22:46:15.175Z,2.90
2022-09-07T22:48:44.081Z,3.40
2022-09-07T22:51:14.484Z,3.50
2022-09-07T22:53:43.149Z,3.60
2022-09-07T22:56:16.481Z,3.10
2022-09-07T22:58:47.797Z,3.40
2022-09-07T23:01:15.356Z,3.30
2022-09-07T23:03:44.626Z,3.00
2022-09-07T23:06:32.967Z,3.30
2022-09-07T23:09:01.965Z,3.40
2022-09-07T23:11:29.946Z,3.10
2022-09-07T23:13:59.877Z,3.30
2022-09-07T23:16:28.198Z,3.00
2022-09-07T23:18:58.137Z,3.00
2022-09-07T23:21:26.450Z,3.30
2022-09-07T23:23:56.060Z,3.50
2022-09-07T23:26:28.699Z,3.10
2022-09-07T23:29:00.610Z,3.20
2022-09-07T23:31:29.595Z,3.40
2022-09-07T23:33:57.991Z,3.80
2022-09-07T23:36:25.668Z,3.10
2022-09-07T23:38:56.354Z,3.60
2022-09-07T23:41:25.207Z,3.40
2022-09-07T23:43:53.321Z,3.30
2022-09-07T23:46:21.050Z,3.50
2022-09-07T23:48:49.236Z,3.70
2022-09-07T23:51:21.261Z,3.30
2022-09-07T23:53:51.025Z,3.20
2022-09-07T23:56:17.867Z,3.40
2022-09-07T23:58:45.424Z,3.60
